createdAt,value
2018-05-13T00:00:21.715Z,1010.76
2018-05-13T00:01:21.743Z,1010.71
2018-05-13T00:03:21.786Z,1010.72
2018-05-13T00:04:21.813Z,1010.73
2018-05-13T00:05:21.945Z,1010.67
2018-05-13T00:06:21.855Z,1010.71
2018-05-13T00:07:21.882Z,1010.7
2018-05-13T00:08:21.905Z,1010.71
2018-05-13T00:09:21.928Z,1010.65
2018-05-13T00:10:21.948Z,1010.64
2018-05-13T00:11:21.975Z,1010.62
2018-05-13T00:12:21.998Z,1010.6
2018-05-13T00:13:22.018Z,1010.62
2018-05-13T00:14:22.044Z,1010.58
2018-05-13T00:15:22.066Z,1010.59
2018-05-13T00:16:22.085Z,1010.59
2018-05-13T00:17:22.114Z,1010.6
2018-05-13T00:18:22.132Z,1010.53
2018-05-13T00:19:22.158Z,1010.57
2018-05-13T00:20:22.179Z,1010.56
2018-05-13T00:21:22.209Z,1010.51
2018-05-13T00:22:22.229Z,1010.49
2018-05-13T00:23:22.249Z,1010.52
2018-05-13T00:24:22.275Z,1010.52
2018-05-13T00:25:22.296Z,1010.54
2018-05-13T00:26:22.321Z,1010.51
2018-05-13T00:27:22.339Z,1010.49
2018-05-13T00:28:22.368Z,1010.51
2018-05-13T00:29:22.391Z,1010.46
2018-05-13T00:30:22.410Z,1010.48
2018-05-13T00:31:22.433Z,1010.51
2018-05-13T00:32:22.456Z,1010.48
2018-05-13T00:33:22.483Z,1010.49
2018-05-13T00:35:22.540Z,1010.49
2018-05-13T00:36:22.549Z,1010.47
2018-05-13T00:37:22.575Z,1010.45
2018-05-13T00:38:22.593Z,1010.42
2018-05-13T00:39:22.618Z,1010.42
2018-05-13T00:40:22.645Z,1010.43
2018-05-13T00:41:22.665Z,1010.46
2018-05-13T00:42:22.686Z,1010.42
2018-05-13T00:43:22.721Z,1010.37
2018-05-13T00:44:22.731Z,1010.43
2018-05-13T00:45:22.759Z,1010.36
2018-05-13T00:46:22.782Z,1010.36
2018-05-13T00:47:22.801Z,1010.37
2018-05-13T00:48:22.829Z,1010.31
2018-05-13T00:49:22.848Z,1010.35
2018-05-13T00:51:22.893Z,1010.36
2018-05-13T00:52:22.921Z,1010.36
2018-05-13T00:53:22.943Z,1010.33
2018-05-13T00:54:22.963Z,1010.36
2018-05-13T00:55:22.985Z,1010.36
2018-05-13T00:56:23.007Z,1010.38
2018-05-13T00:57:23.040Z,1010.36
2018-05-13T00:58:23.055Z,1010.38
2018-05-13T00:59:23.080Z,1010.37
2018-05-13T01:00:23.100Z,1010.37
2018-05-13T01:01:23.127Z,1010.41
2018-05-13T01:02:23.146Z,1010.4
2018-05-13T01:03:23.168Z,1010.35
2018-05-13T01:04:23.201Z,1010.32
2018-05-13T01:05:23.223Z,1010.29
2018-05-13T01:07:23.259Z,1010.33
2018-05-13T01:08:23.287Z,1010.29
2018-05-13T01:09:23.308Z,1010.29
2018-05-13T01:10:23.328Z,1010.32
2018-05-13T01:11:23.356Z,1010.3
2018-05-13T01:12:23.375Z,1010.35
2018-05-13T01:13:23.398Z,1010.31
2018-05-13T01:14:23.428Z,1010.35
2018-05-13T01:15:23.447Z,1010.3
2018-05-13T01:16:23.470Z,1010.31
2018-05-13T01:17:23.488Z,1010.32
2018-05-13T01:18:23.516Z,1010.35
2018-05-13T01:19:23.534Z,1010.32
2018-05-13T01:20:23.562Z,1010.32
2018-05-13T01:21:23.580Z,1010.31
2018-05-13T01:23:23.640Z,1010.31
2018-05-13T01:24:23.650Z,1010.3
2018-05-13T01:25:23.672Z,1010.28
2018-05-13T01:26:23.694Z,1010.27
2018-05-13T01:27:23.722Z,1010.26
2018-05-13T01:28:23.742Z,1010.33
2018-05-13T01:29:23.767Z,1010.32
2018-05-13T01:30:23.787Z,1010.32
2018-05-13T01:31:23.813Z,1010.27
2018-05-13T01:32:23.832Z,1010.26
2018-05-13T01:33:23.854Z,1010.26
2018-05-13T01:34:23.878Z,1010.29
2018-05-13T01:35:23.910Z,1010.3
2018-05-13T01:36:23.929Z,1010.32
2018-05-13T01:38:23.970Z,1010.25
2018-05-13T01:39:23.996Z,1010.25
2018-05-13T01:40:24.020Z,1010.25
2018-05-13T01:41:24.039Z,1010.27
2018-05-13T01:42:24.066Z,1010.26
2018-05-13T01:43:24.083Z,1010.26
2018-05-13T01:44:24.111Z,1010.25
2018-05-13T01:45:24.130Z,1010.22
2018-05-13T01:46:24.157Z,1010.2
2018-05-13T01:47:24.180Z,1010.22
2018-05-13T01:48:24.199Z,1010.19
2018-05-13T01:49:24.226Z,1010.18
2018-05-13T01:50:24.248Z,1010.15
2018-05-13T01:51:24.282Z,1010.16
2018-05-13T01:52:24.294Z,1010.12
2018-05-13T01:53:24.313Z,1010.15
2018-05-13T01:54:24.335Z,1010.15
2018-05-13T01:55:24.358Z,1010.14
2018-05-13T01:56:24.385Z,1010.12
2018-05-13T01:57:24.408Z,1010.14
2018-05-13T01:58:24.426Z,1010.08
2018-05-13T01:59:24.449Z,1010.1
2018-05-13T02:00:24.473Z,1010.14
2018-05-13T02:01:24.499Z,1010.15
2018-05-13T02:02:24.518Z,1010.13
2018-05-13T02:03:24.541Z,1010.11
2018-05-13T02:04:24.568Z,1010.14
2018-05-13T02:05:24.586Z,1010.17
2018-05-13T02:06:24.613Z,1010.18
2018-05-13T02:07:24.633Z,1010.17
2018-05-13T02:08:24.658Z,1010.12
2018-05-13T02:10:24.700Z,1010.2
2018-05-13T02:11:24.727Z,1010.15
2018-05-13T02:12:24.745Z,1010.12
2018-05-13T02:13:24.771Z,1010.13
2018-05-13T02:14:24.799Z,1010.12
2018-05-13T02:15:24.818Z,1010.11
2018-05-13T02:16:24.836Z,1010.13
2018-05-13T02:17:24.859Z,1010.09
2018-05-13T02:18:24.886Z,1010.06
2018-05-13T02:19:24.908Z,1010.02
2018-05-13T02:20:24.931Z,1010.05
2018-05-13T02:21:24.950Z,1010.02
2018-05-13T02:22:24.977Z,1010.04
2018-05-13T02:23:24.995Z,1010.02
2018-05-13T02:24:25.022Z,1010.01
2018-05-13T02:26:25.069Z,1009.98
2018-05-13T02:27:25.093Z,1009.96
2018-05-13T02:28:25.111Z,1009.96
2018-05-13T02:29:25.136Z,1009.96
2018-05-13T02:30:25.155Z,1009.92
2018-05-13T02:31:25.186Z,1009.92
2018-05-13T02:32:25.210Z,1009.93
2018-05-13T02:33:25.224Z,1009.91
2018-05-13T02:34:25.260Z,1009.91
2018-05-13T02:35:25.275Z,1009.91
2018-05-13T02:36:25.297Z,1009.89
2018-05-13T02:37:25.330Z,1009.91
2018-05-13T02:38:25.337Z,1009.91
2018-05-13T02:39:25.365Z,1009.87
2018-05-13T02:40:25.383Z,1009.85
2018-05-13T02:42:25.427Z,1009.84
2018-05-13T02:43:25.455Z,1009.8
2018-05-13T02:44:25.479Z,1009.84
2018-05-13T02:45:25.497Z,1009.85
2018-05-13T02:46:25.592Z,1009.82
2018-05-13T02:47:25.542Z,1009.82
2018-05-13T02:48:25.569Z,1009.87
2018-05-13T02:49:25.586Z,1009.86
2018-05-13T02:50:25.615Z,1009.89
2018-05-13T02:51:25.634Z,1009.9
2018-05-13T02:52:25.659Z,1009.85
2018-05-13T02:53:25.678Z,1009.89
2018-05-13T02:54:25.701Z,1009.86
2018-05-13T02:55:25.728Z,1009.89
2018-05-13T02:56:25.745Z,1009.88
2018-05-13T02:58:25.792Z,1009.84
2018-05-13T02:59:25.819Z,1009.84
2018-05-13T03:00:25.837Z,1009.88
2018-05-13T03:01:25.864Z,1009.9
2018-05-13T03:02:25.883Z,1009.9
2018-05-13T03:03:25.908Z,1009.82
2018-05-13T03:04:25.927Z,1009.85
2018-05-13T03:05:25.960Z,1009.81
2018-05-13T03:06:26.024Z,1009.81
2018-05-13T03:07:26.003Z,1009.83
2018-05-13T03:08:26.023Z,1009.81
2018-05-13T03:09:26.041Z,1009.82
2018-05-13T03:10:26.069Z,1009.84
2018-05-13T03:11:26.087Z,1009.78
2018-05-13T03:13:26.134Z,1009.82
2018-05-13T03:14:26.158Z,1009.85
2018-05-13T03:15:26.182Z,1009.86
2018-05-13T03:16:26.201Z,1009.84
2018-05-13T03:17:26.223Z,1009.86
2018-05-13T03:18:26.248Z,1009.86
2018-05-13T03:19:26.273Z,1009.89
2018-05-13T03:20:26.293Z,1009.89
2018-05-13T03:21:26.318Z,1009.89
2018-05-13T03:22:26.336Z,1009.88
2018-05-13T03:23:26.364Z,1009.87
2018-05-13T03:24:26.382Z,1009.88
2018-05-13T03:25:26.409Z,1009.87
2018-05-13T03:26:26.427Z,1009.85
2018-05-13T03:27:26.451Z,1009.88
2018-05-13T03:28:26.473Z,1009.88
2018-05-13T03:29:26.499Z,1009.87
2018-05-13T03:30:26.519Z,1009.86
2018-05-13T03:31:26.554Z,1009.88
2018-05-13T03:32:26.567Z,1009.88
2018-05-13T03:33:26.597Z,1009.86
2018-05-13T03:34:26.609Z,1009.86
2018-05-13T03:35:26.632Z,1009.89
2018-05-13T03:36:26.658Z,1009.89
2018-05-13T03:37:26.680Z,1009.91
2018-05-13T03:38:26.700Z,1009.9
2018-05-13T03:39:26.727Z,1009.9
2018-05-13T03:40:26.745Z,1009.94
2018-05-13T03:41:26.772Z,1009.91
2018-05-13T03:42:26.795Z,1009.87
2018-05-13T03:43:26.817Z,1009.9
2018-05-13T03:45:26.860Z,1009.92
2018-05-13T03:46:26.886Z,1009.93
2018-05-13T03:47:26.904Z,1009.92
2018-05-13T03:48:26.932Z,1009.9
2018-05-13T03:49:26.951Z,1009.89
2018-05-13T03:50:26.977Z,1009.86
2018-05-13T03:51:26.995Z,1009.87
2018-05-13T03:52:27.023Z,1009.9
2018-05-13T03:53:27.041Z,1009.87
2018-05-13T03:54:27.065Z,1009.88
2018-05-13T03:55:27.087Z,1009.86
2018-05-13T03:56:27.113Z,1009.82
2018-05-13T03:57:27.135Z,1009.88
2018-05-13T03:58:27.159Z,1009.89
2018-05-13T03:59:27.178Z,1009.87
2018-05-13T04:01:27.224Z,1009.86
2018-05-13T04:02:27.247Z,1009.86
2018-05-13T04:03:27.273Z,1009.86
2018-05-13T04:04:27.297Z,1009.88
2018-05-13T04:05:27.319Z,1009.87
2018-05-13T04:06:27.337Z,1009.89
2018-05-13T04:07:27.436Z,1009.9
2018-05-13T04:08:27.384Z,1009.91
2018-05-13T04:09:27.411Z,1009.92
2018-05-13T04:10:27.430Z,1009.93
2018-05-13T04:11:27.457Z,1009.94
2018-05-13T04:12:27.480Z,1009.94
2018-05-13T04:13:27.498Z,1009.9
2018-05-13T04:14:27.522Z,1009.91
2018-05-13T04:15:27.544Z,1009.89
2018-05-13T04:17:27.591Z,1009.94
2018-05-13T04:18:27.618Z,1009.94
2018-05-13T04:19:27.637Z,1009.97
2018-05-13T04:20:27.660Z,1009.94
2018-05-13T04:21:27.687Z,1009.94
2018-05-13T04:22:27.714Z,1009.92
2018-05-13T04:23:27.730Z,1009.9
2018-05-13T04:24:27.757Z,1009.95
2018-05-13T04:25:27.776Z,1009.94
2018-05-13T04:26:27.798Z,1009.91
2018-05-13T04:27:27.826Z,1009.91
2018-05-13T04:28:27.848Z,1009.93
2018-05-13T04:29:27.873Z,1009.9
2018-05-13T04:30:27.892Z,1009.91
2018-05-13T04:31:27.918Z,1009.95
2018-05-13T04:33:27.961Z,1009.97
2018-05-13T04:34:27.989Z,1009.93
2018-05-13T04:35:28.007Z,1009.92
2018-05-13T04:36:28.035Z,1009.9
2018-05-13T04:37:28.055Z,1009.91
2018-05-13T04:38:28.081Z,1009.95
2018-05-13T04:39:28.101Z,1009.95
2018-05-13T04:40:28.124Z,1009.99
2018-05-13T04:41:28.152Z,1009.94
2018-05-13T04:42:28.177Z,1009.95
2018-05-13T04:43:28.199Z,1009.92
2018-05-13T04:44:28.219Z,1009.96
2018-05-13T04:45:28.245Z,1009.96
2018-05-13T04:46:28.266Z,1010
2018-05-13T04:48:28.314Z,1010.07
2018-05-13T04:49:28.341Z,1010.11
2018-05-13T04:50:28.360Z,1010.15
2018-05-13T04:51:28.390Z,1010.12
2018-05-13T04:52:28.410Z,1010.13
2018-05-13T04:53:28.439Z,1010.11
2018-05-13T04:54:28.458Z,1010.17
2018-05-13T04:55:28.488Z,1010.18
2018-05-13T04:56:28.508Z,1010.2
2018-05-13T04:57:28.534Z,1010.24
2018-05-13T04:58:28.564Z,1010.22
2018-05-13T04:59:28.587Z,1010.24
2018-05-13T05:00:28.616Z,1010.22
2018-05-13T05:01:28.638Z,1010.22
2018-05-13T05:02:28.669Z,1010.25
2018-05-13T05:03:28.691Z,1010.24
2018-05-13T05:04:28.717Z,1010.3
2018-05-13T05:05:28.744Z,1010.28
2018-05-13T05:06:28.778Z,1010.28
2018-05-13T05:07:28.803Z,1010.25
2018-05-13T05:08:28.825Z,1010.28
2018-05-13T05:09:28.854Z,1010.27
2018-05-13T05:10:28.883Z,1010.31
2018-05-13T05:11:28.914Z,1010.31
2018-05-13T05:12:28.938Z,1010.33
2018-05-13T05:13:28.966Z,1010.32
2018-05-13T05:14:29.008Z,1010.32
2018-05-13T05:15:29.023Z,1010.35
2018-05-13T05:16:29.056Z,1010.4
2018-05-13T05:17:29.086Z,1010.37
2018-05-13T05:18:29.118Z,1010.38
2018-05-13T05:20:29.170Z,1010.41
2018-05-13T05:21:29.204Z,1010.42
2018-05-13T05:22:29.228Z,1010.41
2018-05-13T05:23:29.263Z,1010.43
2018-05-13T05:24:29.293Z,1010.45
2018-05-13T05:25:29.326Z,1010.5
2018-05-13T05:26:29.349Z,1010.43
2018-05-13T05:27:29.384Z,1010.47
2018-05-13T05:28:29.411Z,1010.48
2018-05-13T05:29:29.444Z,1010.48
2018-05-13T05:30:29.475Z,1010.47
2018-05-13T05:31:29.501Z,1010.5
2018-05-13T05:32:29.538Z,1010.48
2018-05-13T05:33:29.563Z,1010.46
2018-05-13T05:34:29.602Z,1010.44
2018-05-13T05:36:29.662Z,1010.49
2018-05-13T05:37:29.695Z,1010.47
2018-05-13T05:38:29.725Z,1010.51
2018-05-13T05:39:29.758Z,1010.51
2018-05-13T05:40:29.784Z,1010.52
2018-05-13T05:41:29.820Z,1010.54
2018-05-13T05:42:29.848Z,1010.56
2018-05-13T05:43:29.880Z,1010.55
2018-05-13T05:44:29.911Z,1010.55
2018-05-13T05:45:29.950Z,1010.47
2018-05-13T05:46:29.977Z,1010.44
2018-05-13T05:47:30.014Z,1010.51
2018-05-13T05:48:30.118Z,1010.52
2018-05-13T05:49:30.074Z,1010.49
2018-05-13T05:50:30.111Z,1010.55
2018-05-13T05:52:30.177Z,1010.54
2018-05-13T05:53:30.205Z,1010.53
2018-05-13T05:54:30.243Z,1010.53
2018-05-13T05:55:30.276Z,1010.58
2018-05-13T05:56:30.304Z,1010.57
2018-05-13T05:57:30.346Z,1010.59
2018-05-13T05:58:30.376Z,1010.7
2018-05-13T05:59:30.409Z,1010.67
2018-05-13T06:00:30.439Z,1010.74
2018-05-13T06:01:30.476Z,1010.74
2018-05-13T06:02:30.509Z,1010.8
2018-05-13T06:03:30.543Z,1010.85
2018-05-13T06:04:30.572Z,1010.84
2018-05-13T06:05:30.608Z,1010.9
2018-05-13T06:06:30.643Z,1010.91
2018-05-13T06:08:30.708Z,1010.98
2018-05-13T06:09:30.746Z,1010.96
2018-05-13T06:10:30.775Z,1010.92
2018-05-13T06:11:30.813Z,1010.94
2018-05-13T06:12:30.842Z,1010.87
2018-05-13T06:13:30.880Z,1010.92
2018-05-13T06:14:30.910Z,1010.95
2018-05-13T06:15:30.944Z,1010.93
2018-05-13T06:16:30.983Z,1010.97
2018-05-13T06:17:31.016Z,1010.98
2018-05-13T06:18:31.052Z,1010.94
2018-05-13T06:19:31.080Z,1011
2018-05-13T06:20:31.118Z,1010.95
2018-05-13T06:21:31.150Z,1010.99
2018-05-13T06:23:31.222Z,1011.02
2018-05-13T06:24:31.251Z,1011
2018-05-13T06:25:31.290Z,1011.01
2018-05-13T06:26:31.328Z,1010.97
2018-05-13T06:27:31.359Z,1010.98
2018-05-13T06:28:31.392Z,1011.02
2018-05-13T06:29:31.424Z,1011.03
2018-05-13T06:30:31.462Z,1010.96
2018-05-13T06:31:31.491Z,1011.06
2018-05-13T06:32:31.534Z,1011.03
2018-05-13T06:33:31.565Z,1010.98
2018-05-13T06:34:31.605Z,1010.98
2018-05-13T06:35:31.631Z,1011.03
2018-05-13T06:36:31.670Z,1011.05
2018-05-13T06:37:31.713Z,1011.04
2018-05-13T06:38:31.735Z,1011.06
2018-05-13T06:39:31.773Z,1011.05
2018-05-13T06:40:31.809Z,1011.1
2018-05-13T06:41:31.840Z,1011.09
2018-05-13T06:42:31.878Z,1011.08
2018-05-13T06:43:31.917Z,1011.13
2018-05-13T06:44:31.948Z,1011.15
2018-05-13T06:45:31.979Z,1011.17
2018-05-13T06:46:32.014Z,1011.22
2018-05-13T06:47:32.053Z,1011.2
2018-05-13T06:48:32.090Z,1011.26
2018-05-13T06:49:32.123Z,1011.26
2018-05-13T06:50:32.154Z,1011.3
2018-05-13T06:51:32.274Z,1011.19
2018-05-13T06:52:32.223Z,1010.93
2018-05-13T06:53:32.262Z,1010.72
2018-05-13T06:55:32.333Z,1010.56
2018-05-13T06:56:32.370Z,1010.57
2018-05-13T06:57:32.401Z,1010.6
2018-05-13T06:58:32.433Z,1010.62
2018-05-13T06:59:32.470Z,1010.63
2018-05-13T07:00:32.509Z,1010.65
2018-05-13T07:01:32.540Z,1010.64
2018-05-13T07:02:32.579Z,1010.62
2018-05-13T07:03:32.610Z,1010.58
2018-05-13T07:04:32.649Z,1010.61
2018-05-13T07:05:32.681Z,1010.58
2018-05-13T07:06:32.720Z,1010.52
2018-05-13T07:07:32.752Z,1010.57
2018-05-13T07:08:32.790Z,1010.61
2018-05-13T07:09:32.822Z,1010.58
2018-05-13T07:11:32.900Z,1010.58
2018-05-13T07:12:32.932Z,1010.58
2018-05-13T07:13:32.969Z,1010.58
2018-05-13T07:14:33.005Z,1010.6
2018-05-13T07:15:33.039Z,1010.61
2018-05-13T07:16:33.145Z,1010.56
2018-05-13T07:17:33.113Z,1010.55
2018-05-13T07:18:33.143Z,1010.74
2018-05-13T07:19:33.178Z,1011.07
2018-05-13T07:20:33.215Z,1011.18
2018-05-13T07:21:33.255Z,1011.14
2018-05-13T07:22:33.287Z,1011.07
2018-05-13T07:23:33.327Z,1011.09
2018-05-13T07:24:33.367Z,1011.11
2018-05-13T07:25:33.402Z,1011.12
2018-05-13T07:27:33.465Z,1010.96
2018-05-13T07:28:33.511Z,1010.93
2018-05-13T07:29:33.538Z,1010.94
2018-05-13T07:30:33.578Z,1010.88
2018-05-13T07:31:33.616Z,1010.87
2018-05-13T07:32:33.645Z,1010.89
2018-05-13T07:33:33.691Z,1010.81
2018-05-13T07:34:33.721Z,1010.84
2018-05-13T07:35:33.752Z,1010.8
2018-05-13T07:36:33.793Z,1010.78
2018-05-13T07:37:33.829Z,1010.77
2018-05-13T07:38:33.867Z,1010.73
2018-05-13T07:39:33.897Z,1010.72
2018-05-13T07:40:33.938Z,1010.7
2018-05-13T07:41:33.974Z,1010.73
2018-05-13T07:43:34.050Z,1010.66
2018-05-13T07:44:34.079Z,1010.71
2018-05-13T07:45:34.118Z,1010.64
2018-05-13T07:46:34.151Z,1010.63
2018-05-13T07:47:34.191Z,1010.65
2018-05-13T07:48:34.228Z,1010.62
2018-05-13T07:49:34.260Z,1010.58
2018-05-13T07:50:34.300Z,1010.54
2018-05-13T07:51:34.334Z,1010.59
2018-05-13T07:52:34.373Z,1010.58
2018-05-13T07:53:34.407Z,1010.53
2018-05-13T07:54:34.448Z,1010.56
2018-05-13T07:55:34.483Z,1010.54
2018-05-13T07:56:34.520Z,1010.5
2018-05-13T07:58:34.592Z,1010.55
2018-05-13T07:59:34.622Z,1010.51
2018-05-13T08:00:34.668Z,1010.5
2018-05-13T08:01:34.697Z,1010.45
2018-05-13T08:02:34.734Z,1010.49
2018-05-13T08:03:34.773Z,1010.47
2018-05-13T08:04:34.806Z,1010.49
2018-05-13T08:05:34.846Z,1010.49
2018-05-13T08:06:34.877Z,1010.43
2018-05-13T08:07:34.917Z,1010.45
2018-05-13T08:08:34.950Z,1010.42
2018-05-13T08:09:34.985Z,1010.44
2018-05-13T08:10:35.026Z,1010.43
2018-05-13T08:11:35.057Z,1010.45
2018-05-13T08:12:35.097Z,1010.45
2018-05-13T08:13:35.130Z,1010.34
2018-05-13T08:14:35.169Z,1010.38
2018-05-13T08:15:35.200Z,1010.34
2018-05-13T08:16:35.241Z,1010.23
2018-05-13T08:17:35.272Z,1010.32
2018-05-13T08:18:35.313Z,1010.21
2018-05-13T08:19:35.348Z,1010.17
2018-05-13T08:20:35.437Z,1010.15
2018-05-13T08:21:35.415Z,1010.14
2018-05-13T08:22:35.450Z,1010.09
2018-05-13T08:23:35.490Z,1010.14
2018-05-13T08:24:35.521Z,1010.14
2018-05-13T08:25:35.556Z,1010.16
2018-05-13T08:26:35.600Z,1010.24
2018-05-13T08:27:35.627Z,1010.34
2018-05-13T08:28:35.666Z,1010.31
2018-05-13T08:30:35.732Z,1010.27
2018-05-13T08:31:35.772Z,1010.28
2018-05-13T08:32:35.803Z,1010.27
2018-05-13T08:33:35.842Z,1010.14
2018-05-13T08:34:35.878Z,1010.2
2018-05-13T08:35:35.915Z,1010.17
2018-05-13T08:36:35.945Z,1010.14
2018-05-13T08:37:35.985Z,1010.1
2018-05-13T08:38:36.016Z,1010.13
2018-05-13T08:39:36.050Z,1010.1
2018-05-13T08:40:36.085Z,1010.08
2018-05-13T08:41:36.126Z,1010.11
2018-05-13T08:42:36.161Z,1010.04
2018-05-13T08:43:36.192Z,1010.06
2018-05-13T08:44:36.236Z,1010.05
2018-05-13T08:46:36.307Z,1009.9
2018-05-13T08:47:36.333Z,1009.8
2018-05-13T08:48:36.432Z,1009.79
2018-05-13T08:49:36.407Z,1009.78
2018-05-13T08:50:36.444Z,1009.83
2018-05-13T08:51:36.473Z,1009.73
2018-05-13T08:52:36.518Z,1009.76
2018-05-13T08:53:36.546Z,1009.74
2018-05-13T08:54:36.593Z,1009.75
2018-05-13T08:55:36.613Z,1009.71
2018-05-13T08:56:36.652Z,1009.71
2018-05-13T08:57:36.689Z,1009.7
2018-05-13T08:58:36.723Z,1009.67
2018-05-13T08:59:36.831Z,1009.67
2018-05-13T09:00:36.788Z,1009.61
2018-05-13T09:02:36.858Z,1009.67
2018-05-13T09:03:36.948Z,1009.62
2018-05-13T09:04:36.929Z,1009.56
2018-05-13T09:05:36.966Z,1009.59
2018-05-13T09:06:36.998Z,1009.67
2018-05-13T09:07:37.041Z,1009.66
2018-05-13T09:08:37.072Z,1009.61
2018-05-13T09:09:37.106Z,1009.56
2018-05-13T09:10:37.237Z,1009.61
2018-05-13T09:11:37.176Z,1009.56
2018-05-13T09:12:37.205Z,1009.55
2018-05-13T09:13:37.245Z,1009.55
2018-05-13T09:14:37.275Z,1009.49
2018-05-13T09:15:37.314Z,1009.55
2018-05-13T09:16:37.348Z,1009.48
2018-05-13T09:18:37.419Z,1009.62
2018-05-13T09:19:37.451Z,1009.64
2018-05-13T09:20:37.546Z,1009.59
2018-05-13T09:21:37.520Z,1009.52
2018-05-13T09:22:37.549Z,1009.52
2018-05-13T09:23:37.587Z,1009.51
2018-05-13T09:24:37.617Z,1009.48
2018-05-13T09:25:37.656Z,1009.51
2018-05-13T09:26:37.717Z,1009.46
2018-05-13T09:27:37.724Z,1009.53
2018-05-13T09:28:37.753Z,1009.46
2018-05-13T09:29:37.892Z,1009.43
2018-05-13T09:30:37.825Z,1009.4
2018-05-13T09:31:37.855Z,1009.45
2018-05-13T09:33:37.924Z,1009.42
2018-05-13T09:34:37.961Z,1009.41
2018-05-13T09:35:37.993Z,1009.46
2018-05-13T09:36:38.025Z,1009.42
2018-05-13T09:37:38.059Z,1009.42
2018-05-13T09:38:38.096Z,1009.42
2018-05-13T09:39:38.130Z,1009.36
2018-05-13T09:40:38.163Z,1009.35
2018-05-13T09:41:38.198Z,1009.34
2018-05-13T09:42:38.225Z,1009.41
2018-05-13T09:43:38.267Z,1009.33
2018-05-13T09:44:38.293Z,1009.41
2018-05-13T09:45:38.331Z,1009.39
2018-05-13T09:46:38.360Z,1009.41
2018-05-13T09:47:38.394Z,1009.37
2018-05-13T09:48:38.432Z,1009.36
2018-05-13T09:49:38.465Z,1009.33
2018-05-13T09:50:38.494Z,1009.33
2018-05-13T09:51:38.532Z,1009.38
2018-05-13T09:52:38.560Z,1009.37
2018-05-13T09:53:38.598Z,1009.35
2018-05-13T09:54:38.628Z,1009.36
2018-05-13T09:55:38.671Z,1009.29
2018-05-13T09:56:38.697Z,1009.38
2018-05-13T09:57:38.807Z,1009.27
2018-05-13T09:58:38.760Z,1009.3
2018-05-13T09:59:38.793Z,1009.3
2018-05-13T10:00:38.830Z,1009.26
2018-05-13T10:01:38.867Z,1009.25
2018-05-13T10:02:38.901Z,1009.26
2018-05-13T10:03:38.924Z,1009.22
2018-05-13T10:05:38.990Z,1009.28
2018-05-13T10:06:39.022Z,1009.22
2018-05-13T10:07:39.054Z,1009.2
2018-05-13T10:08:39.092Z,1009.23
2018-05-13T10:09:39.192Z,1009.19
2018-05-13T10:10:39.153Z,1009.25
2018-05-13T10:11:39.199Z,1009.23
2018-05-13T10:12:39.217Z,1009.21
2018-05-13T10:13:39.256Z,1009.21
2018-05-13T10:14:39.285Z,1009.18
2018-05-13T10:15:39.314Z,1009.21
2018-05-13T10:16:39.347Z,1009.14
2018-05-13T10:17:39.384Z,1009.22
2018-05-13T10:18:39.411Z,1009.14
2018-05-13T10:19:39.450Z,1009.13
2018-05-13T10:21:39.509Z,1009.15
2018-05-13T10:22:39.540Z,1009.15
2018-05-13T10:23:39.576Z,1009.13
2018-05-13T10:24:39.609Z,1009.13
2018-05-13T10:25:39.636Z,1009.16
2018-05-13T10:26:39.673Z,1009.12
2018-05-13T10:27:39.700Z,1009.07
2018-05-13T10:28:39.742Z,1009.14
2018-05-13T10:29:39.765Z,1009.11
2018-05-13T10:30:39.797Z,1009.14
2018-05-13T10:31:39.834Z,1009.06
2018-05-13T10:32:39.866Z,1009.09
2018-05-13T10:33:39.901Z,1008.99
2018-05-13T10:34:39.926Z,1009.05
2018-05-13T10:35:39.962Z,1008.98
2018-05-13T10:37:40.025Z,1009
2018-05-13T10:38:40.053Z,1008.98
2018-05-13T10:39:40.089Z,1009
2018-05-13T10:40:40.116Z,1008.99
2018-05-13T10:41:40.160Z,1008.96
2018-05-13T10:42:40.180Z,1008.97
2018-05-13T10:43:40.216Z,1008.98
2018-05-13T10:44:40.242Z,1009.01
2018-05-13T10:45:40.279Z,1008.88
2018-05-13T10:46:40.306Z,1008.94
2018-05-13T10:47:40.341Z,1008.96
2018-05-13T10:48:40.368Z,1008.95
2018-05-13T10:49:40.403Z,1008.96
2018-05-13T10:50:40.435Z,1008.93
2018-05-13T10:51:40.461Z,1008.9
2018-05-13T10:53:40.524Z,1008.97
2018-05-13T10:54:40.559Z,1008.91
2018-05-13T10:55:40.584Z,1008.9
2018-05-13T10:56:40.619Z,1008.79
2018-05-13T10:57:40.683Z,1008.8
2018-05-13T10:58:40.680Z,1008.87
2018-05-13T10:59:40.706Z,1008.8
2018-05-13T11:00:40.742Z,1008.81
2018-05-13T11:01:40.772Z,1008.76
2018-05-13T11:02:40.798Z,1008.86
2018-05-13T11:03:40.832Z,1008.83
2018-05-13T11:04:40.891Z,1008.83
2018-05-13T11:05:40.893Z,1008.78
2018-05-13T11:06:40.919Z,1008.79
2018-05-13T11:08:40.980Z,1008.72
2018-05-13T11:09:41.017Z,1008.87
2018-05-13T11:10:41.040Z,1008.69
2018-05-13T11:11:41.074Z,1008.75
2018-05-13T11:12:41.105Z,1008.69
2018-05-13T11:13:41.133Z,1008.74
2018-05-13T11:14:41.159Z,1008.6
2018-05-13T11:15:41.189Z,1008.68
2018-05-13T11:16:41.223Z,1008.65
2018-05-13T11:17:41.253Z,1008.74
2018-05-13T11:18:41.282Z,1008.7
2018-05-13T11:19:41.307Z,1008.67
2018-05-13T11:20:41.347Z,1008.62
2018-05-13T11:21:41.371Z,1008.73
2018-05-13T11:22:41.397Z,1008.68
2018-05-13T11:23:41.426Z,1008.66
2018-05-13T11:24:41.460Z,1008.74
2018-05-13T11:25:41.492Z,1008.67
2018-05-13T11:26:41.516Z,1008.62
2018-05-13T11:27:41.548Z,1008.59
2018-05-13T11:28:41.573Z,1008.51
2018-05-13T11:29:41.610Z,1008.53
2018-05-13T11:30:41.632Z,1008.5
2018-05-13T11:31:41.665Z,1008.56
2018-05-13T11:32:41.695Z,1008.55
2018-05-13T11:33:41.747Z,1008.57
2018-05-13T11:34:41.749Z,1008.57
2018-05-13T11:35:41.786Z,1008.56
2018-05-13T11:36:41.808Z,1008.53
2018-05-13T11:37:41.838Z,1008.56
2018-05-13T11:38:41.866Z,1008.58
2018-05-13T11:40:41.925Z,1008.55
2018-05-13T11:41:41.958Z,1008.55
2018-05-13T11:42:41.983Z,1008.53
2018-05-13T11:43:42.017Z,1008.57
2018-05-13T11:44:42.042Z,1008.48
2018-05-13T11:45:42.070Z,1008.51
2018-05-13T11:46:42.136Z,1008.55
2018-05-13T11:47:42.133Z,1008.53
2018-05-13T11:48:42.165Z,1008.55
2018-05-13T11:49:42.185Z,1008.46
2018-05-13T11:50:42.220Z,1008.46
2018-05-13T11:51:42.245Z,1008.43
2018-05-13T11:52:42.276Z,1008.41
2018-05-13T11:53:42.302Z,1008.33
2018-05-13T11:54:42.336Z,1008.4
2018-05-13T11:56:42.391Z,1008.38
2018-05-13T11:57:42.424Z,1008.42
2018-05-13T11:58:42.448Z,1008.37
2018-05-13T11:59:42.477Z,1008.36
2018-05-13T12:00:42.505Z,1008.4
2018-05-13T12:01:42.539Z,1008.36
2018-05-13T12:02:42.564Z,1008.22
2018-05-13T12:03:42.598Z,1008.36
2018-05-13T12:04:42.621Z,1008.43
2018-05-13T12:05:42.655Z,1008.37
2018-05-13T12:06:42.683Z,1008.33
2018-05-13T12:07:42.714Z,1008.28
2018-05-13T12:08:42.738Z,1008.34
2018-05-13T12:09:42.766Z,1008.26
2018-05-13T12:10:42.799Z,1008.3
2018-05-13T12:12:42.858Z,1008.35
2018-05-13T12:13:42.886Z,1008.37
2018-05-13T12:14:42.915Z,1008.27
2018-05-13T12:15:42.941Z,1008.23
2018-05-13T12:16:42.967Z,1008.22
2018-05-13T12:17:43.000Z,1008.23
2018-05-13T12:18:43.030Z,1008.24
2018-05-13T12:19:43.057Z,1008.16
2018-05-13T12:20:43.083Z,1008.13
2018-05-13T12:21:43.116Z,1008.13
2018-05-13T12:22:43.139Z,1008.21
2018-05-13T12:23:43.172Z,1008.14
2018-05-13T12:24:43.196Z,1008.2
2018-05-13T12:25:43.233Z,1008.09
2018-05-13T12:26:43.258Z,1008.13
2018-05-13T12:28:43.312Z,1008.21
2018-05-13T12:29:43.344Z,1008.13
2018-05-13T12:30:43.368Z,1008.18
2018-05-13T12:31:43.397Z,1008.1
2018-05-13T12:32:43.426Z,1008.17
2018-05-13T12:33:43.460Z,1008.16
2018-05-13T12:34:43.482Z,1008
2018-05-13T12:35:43.516Z,1008.08
2018-05-13T12:36:43.541Z,1008.05
2018-05-13T12:37:43.577Z,1008.06
2018-05-13T12:38:43.597Z,1008.14
2018-05-13T12:39:43.630Z,1008.12
2018-05-13T12:40:43.656Z,1008.15
2018-05-13T12:41:43.689Z,1008.22
2018-05-13T12:43:43.742Z,1008.1
2018-05-13T12:44:43.773Z,1008.14
2018-05-13T12:45:43.798Z,1008.08
2018-05-13T12:46:43.831Z,1008.06
2018-05-13T12:47:43.856Z,1008.18
2018-05-13T12:48:43.887Z,1008.14
2018-05-13T12:49:43.916Z,1008.11